sensor_id;sensor_type;location;lat;lon;timestamp;P1;durP1;ratioP1;P2;durP2;ratioP2
41263;SDS011;26998;48.714;9.414;2022-12-29T00:01:15;18.27;;;10.80;;
41263;SDS011;26998;48.714;9.414;2022-12-29T00:03:41;15.38;;;10.27;;
41263;SDS011;26998;48.714;9.414;2022-12-29T00:06:08;13.23;;;8.77;;
41263;SDS011;26998;48.714;9.414;2022-12-29T00:08:34;17.17;;;8.90;;
41263;SDS011;26998;48.714;9.414;2022-12-29T00:11:01;13.77;;;10.02;;
41263;SDS011;26998;48.714;9.414;2022-12-29T00:13:27;15.17;;;10.57;;
41263;SDS011;26998;48.714;9.414;2022-12-29T00:15:54;14.75;;;9.57;;
41263;SDS011;26998;48.714;9.414;2022-12-29T00:18:21;16.70;;;10.43;;
41263;SDS011;26998;48.714;9.414;2022-12-29T00:20:47;18.52;;;11.40;;
41263;SDS011;26998;48.714;9.414;2022-12-29T00:23:14;14.73;;;9.82;;
41263;SDS011;26998;48.714;9.414;2022-12-29T00:25:40;15.25;;;10.45;;
41263;SDS011;26998;48.714;9.414;2022-12-29T00:28:08;17.98;;;10.38;;
41263;SDS011;26998;48.714;9.414;2022-12-29T00:30:35;17.05;;;10.23;;
41263;SDS011;26998;48.714;9.414;2022-12-29T00:33:15;14.73;;;8.88;;
41263;SDS011;26998;48.714;9.414;2022-12-29T00:35:47;16.58;;;10.05;;
41263;SDS011;26998;48.714;9.414;2022-12-29T00:38:18;14.93;;;10.65;;
41263;SDS011;26998;48.714;9.414;2022-12-29T00:40:46;16.50;;;12.43;;
41263;SDS011;26998;48.714;9.414;2022-12-29T00:43:12;17.00;;;10.80;;
41263;SDS011;26998;48.714;9.414;2022-12-29T00:45:40;14.50;;;10.10;;
41263;SDS011;26998;48.714;9.414;2022-12-29T00:48:07;12.32;;;9.18;;
41263;SDS011;26998;48.714;9.414;2022-12-29T00:50:33;14.27;;;8.77;;
41263;SDS011;26998;48.714;9.414;2022-12-29T00:53:00;17.00;;;10.77;;
41263;SDS011;26998;48.714;9.414;2022-12-29T00:55:26;17.75;;;12.02;;
41263;SDS011;26998;48.714;9.414;2022-12-29T00:57:53;15.90;;;9.90;;
41263;SDS011;26998;48.714;9.414;2022-12-29T01:00:20;15.13;;;9.75;;
41263;SDS011;26998;48.714;9.414;2022-12-29T01:02:46;14.40;;;9.55;;
41263;SDS011;26998;48.714;9.414;2022-12-29T01:05:13;16.60;;;10.48;;
41263;SDS011;26998;48.714;9.414;2022-12-29T01:07:39;15.85;;;10.85;;
41263;SDS011;26998;48.714;9.414;2022-12-29T01:10:06;12.90;;;9.15;;
41263;SDS011;26998;48.714;9.414;2022-12-29T01:12:33;12.55;;;9.45;;
41263;SDS011;26998;48.714;9.414;2022-12-29T01:14:59;16.45;;;10.73;;
41263;SDS011;26998;48.714;9.414;2022-12-29T01:17:26;16.17;;;10.52;;
41263;SDS011;26998;48.714;9.414;2022-12-29T01:19:53;13.77;;;9.80;;
41263;SDS011;26998;48.714;9.414;2022-12-29T01:22:19;18.48;;;10.68;;
41263;SDS011;26998;48.714;9.414;2022-12-29T01:24:46;15.93;;;11.32;;
41263;SDS011;26998;48.714;9.414;2022-12-29T01:27:12;13.95;;;10.70;;
41263;SDS011;26998;48.714;9.414;2022-12-29T01:29:39;12.60;;;9.82;;
41263;SDS011;26998;48.714;9.414;2022-12-29T01:32:05;13.05;;;9.27;;
41263;SDS011;26998;48.714;9.414;2022-12-29T01:34:32;11.82;;;7.90;;
41263;SDS011;26998;48.714;9.414;2022-12-29T01:36:59;10.13;;;8.13;;
41263;SDS011;26998;48.714;9.414;2022-12-29T01:39:26;9.52;;;7.78;;
41263;SDS011;26998;48.714;9.414;2022-12-29T01:41:52;11.65;;;8.25;;
41263;SDS011;26998;48.714;9.414;2022-12-29T01:47:14;13.05;;;9.10;;
41263;SDS011;26998;48.714;9.414;2022-12-29T01:49:56;12.73;;;8.90;;
41263;SDS011;26998;48.714;9.414;2022-12-29T01:52:28;13.10;;;8.00;;
41263;SDS011;26998;48.714;9.414;2022-12-29T01:57:27;14.55;;;9.60;;
41263;SDS011;26998;48.714;9.414;2022-12-29T02:00:06;11.98;;;8.35;;
41263;SDS011;26998;48.714;9.414;2022-12-29T02:02:35;10.73;;;8.20;;
41263;SDS011;26998;48.714;9.414;2022-12-29T02:05:05;12.18;;;7.93;;
41263;SDS011;26998;48.714;9.414;2022-12-29T02:07:36;8.35;;;6.30;;
41263;SDS011;26998;48.714;9.414;2022-12-29T02:10:04;10.07;;;8.00;;
41263;SDS011;26998;48.714;9.414;2022-12-29T02:12:32;12.60;;;8.10;;
41263;SDS011;26998;48.714;9.414;2022-12-29T02:14:59;13.05;;;7.85;;
41263;SDS011;26998;48.714;9.414;2022-12-29T02:17:32;9.18;;;7.07;;
41263;SDS011;26998;48.714;9.414;2022-12-29T02:31:39;11.20;;;8.35;;
41263;SDS011;26998;48.714;9.414;2022-12-29T02:36:58;14.45;;;8.10;;
41263;SDS011;26998;48.714;9.414;2022-12-29T02:45:31;11.00;;;7.45;;
41263;SDS011;26998;48.714;9.414;2022-12-29T02:48:09;14.45;;;8.73;;
41263;SDS011;26998;48.714;9.414;2022-12-29T02:50:45;12.27;;;8.82;;
41263;SDS011;26998;48.714;9.414;2022-12-29T02:53:21;13.32;;;8.77;;
41263;SDS011;26998;48.714;9.414;2022-12-29T02:55:50;13.00;;;8.70;;
41263;SDS011;26998;48.714;9.414;2022-12-29T02:58:22;10.68;;;7.88;;
41263;SDS011;26998;48.714;9.414;2022-12-29T03:06:33;12.75;;;8.80;;
41263;SDS011;26998;48.714;9.414;2022-12-29T03:09:20;13.70;;;8.90;;
41263;SDS011;26998;48.714;9.414;2022-12-29T03:11:58;14.35;;;8.05;;
41263;SDS011;26998;48.714;9.414;2022-12-29T03:14:37;17.30;;;9.10;;
41263;SDS011;26998;48.714;9.414;2022-12-29T03:18:02;15.48;;;9.27;;
41263;SDS011;26998;48.714;9.414;2022-12-29T03:20:14;18.00;;;8.68;;
41263;SDS011;26998;48.714;9.414;2022-12-29T03:22:47;14.60;;;8.43;;
41263;SDS011;26998;48.714;9.414;2022-12-29T03:25:23;11.52;;;7.78;;
41263;SDS011;26998;48.714;9.414;2022-12-29T03:27:58;12.65;;;8.35;;
41263;SDS011;26998;48.714;9.414;2022-12-29T03:30:29;13.43;;;8.27;;
41263;SDS011;26998;48.714;9.414;2022-12-29T03:35:29;10.73;;;6.93;;
41263;SDS011;26998;48.714;9.414;2022-12-29T03:38:02;12.20;;;7.45;;
41263;SDS011;26998;48.714;9.414;2022-12-29T03:40:44;6.78;;;5.25;;
41263;SDS011;26998;48.714;9.414;2022-12-29T03:43:14;9.27;;;6.10;;
41263;SDS011;26998;48.714;9.414;2022-12-29T03:45:43;12.35;;;6.82;;
41263;SDS011;26998;48.714;9.414;2022-12-29T03:48:10;12.32;;;7.18;;
41263;SDS011;26998;48.714;9.414;2022-12-29T03:50:36;13.43;;;7.93;;
41263;SDS011;26998;48.714;9.414;2022-12-29T03:53:03;10.85;;;7.65;;
41263;SDS011;26998;48.714;9.414;2022-12-29T03:55:29;11.68;;;6.80;;
41263;SDS011;26998;48.714;9.414;2022-12-29T03:57:56;11.15;;;6.45;;
41263;SDS011;26998;48.714;9.414;2022-12-29T04:00:22;8.57;;;5.70;;
41263;SDS011;26998;48.714;9.414;2022-12-29T04:02:49;3.30;;;2.60;;
41263;SDS011;26998;48.714;9.414;2022-12-29T04:05:15;4.75;;;1.90;;
41263;SDS011;26998;48.714;9.414;2022-12-29T04:07:42;3.55;;;2.15;;
41263;SDS011;26998;48.714;9.414;2022-12-29T04:10:08;5.03;;;2.55;;
41263;SDS011;26998;48.714;9.414;2022-12-29T04:12:35;3.33;;;1.67;;
41263;SDS011;26998;48.714;9.414;2022-12-29T04:15:02;4.40;;;1.45;;
41263;SDS011;26998;48.714;9.414;2022-12-29T04:17:28;3.38;;;1.70;;
41263;SDS011;26998;48.714;9.414;2022-12-29T04:19:55;3.97;;;1.80;;
41263;SDS011;26998;48.714;9.414;2022-12-29T04:22:21;2.72;;;1.65;;
41263;SDS011;26998;48.714;9.414;2022-12-29T04:24:48;5.40;;;1.23;;
41263;SDS011;26998;48.714;9.414;2022-12-29T04:27:15;4.50;;;1.50;;
41263;SDS011;26998;48.714;9.414;2022-12-29T04:29:43;2.92;;;2.03;;
41263;SDS011;26998;48.714;9.414;2022-12-29T04:32:10;3.53;;;1.60;;
41263;SDS011;26998;48.714;9.414;2022-12-29T04:34:36;1.92;;;1.20;;
41263;SDS011;26998;48.714;9.414;2022-12-29T04:37:03;3.63;;;1.48;;
41263;SDS011;26998;48.714;9.414;2022-12-29T04:39:29;5.35;;;1.70;;
41263;SDS011;26998;48.714;9.414;2022-12-29T04:41:55;2.70;;;1.40;;
41263;SDS011;26998;48.714;9.414;2022-12-29T04:44:22;3.22;;;1.60;;
41263;SDS011;26998;48.714;9.414;2022-12-29T04:46:48;4.93;;;1.50;;
41263;SDS011;26998;48.714;9.414;2022-12-29T04:49:15;2.15;;;1.40;;
41263;SDS011;26998;48.714;9.414;2022-12-29T04:51:43;3.53;;;1.88;;
41263;SDS011;26998;48.714;9.414;2022-12-29T04:54:09;2.38;;;1.42;;
41263;SDS011;26998;48.714;9.414;2022-12-29T04:56:36;2.83;;;1.65;;
41263;SDS011;26998;48.714;9.414;2022-12-29T04:59:03;4.35;;;1.67;;
41263;SDS011;26998;48.714;9.414;2022-12-29T05:01:29;2.38;;;1.70;;
41263;SDS011;26998;48.714;9.414;2022-12-29T05:03:55;13.05;;;2.60;;
41263;SDS011;26998;48.714;9.414;2022-12-29T05:06:22;3.40;;;1.73;;
41263;SDS011;26998;48.714;9.414;2022-12-29T05:08:48;2.22;;;1.20;;
41263;SDS011;26998;48.714;9.414;2022-12-29T05:11:15;2.85;;;1.65;;
41263;SDS011;26998;48.714;9.414;2022-12-29T05:13:44;3.22;;;1.70;;
41263;SDS011;26998;48.714;9.414;2022-12-29T05:16:12;2.33;;;1.70;;
41263;SDS011;26998;48.714;9.414;2022-12-29T05:18:39;2.00;;;1.80;;
41263;SDS011;26998;48.714;9.414;2022-12-29T05:21:06;4.30;;;1.67;;
41263;SDS011;26998;48.714;9.414;2022-12-29T05:23:32;3.28;;;1.60;;
41263;SDS011;26998;48.714;9.414;2022-12-29T05:25:58;2.20;;;1.40;;
41263;SDS011;26998;48.714;9.414;2022-12-29T05:28:25;2.40;;;1.60;;
41263;SDS011;26998;48.714;9.414;2022-12-29T05:30:51;2.60;;;1.63;;
41263;SDS011;26998;48.714;9.414;2022-12-29T05:33:18;1.58;;;1.40;;
41263;SDS011;26998;48.714;9.414;2022-12-29T05:35:45;4.25;;;1.88;;
41263;SDS011;26998;48.714;9.414;2022-12-29T05:38:12;1.85;;;1.42;;
41263;SDS011;26998;48.714;9.414;2022-12-29T05:40:38;1.85;;;1.60;;
41263;SDS011;26998;48.714;9.414;2022-12-29T05:43:05;2.38;;;1.55;;
41263;SDS011;26998;48.714;9.414;2022-12-29T05:45:32;3.63;;;1.90;;
41263;SDS011;26998;48.714;9.414;2022-12-29T05:47:59;3.15;;;2.03;;
41263;SDS011;26998;48.714;9.414;2022-12-29T05:50:25;4.30;;;1.65;;
41263;SDS011;26998;48.714;9.414;2022-12-29T05:52:52;3.05;;;2.10;;
41263;SDS011;26998;48.714;9.414;2022-12-29T05:55:19;4.78;;;2.08;;
41263;SDS011;26998;48.714;9.414;2022-12-29T05:57:46;2.17;;;1.85;;
41263;SDS011;26998;48.714;9.414;2022-12-29T06:00:13;4.20;;;2.38;;
41263;SDS011;26998;48.714;9.414;2022-12-29T06:02:39;5.20;;;2.17;;
41263;SDS011;26998;48.714;9.414;2022-12-29T06:05:07;8.20;;;2.10;;
41263;SDS011;26998;48.714;9.414;2022-12-29T06:07:33;7.57;;;2.17;;
41263;SDS011;26998;48.714;9.414;2022-12-29T06:10:00;2.30;;;1.90;;
41263;SDS011;26998;48.714;9.414;2022-12-29T06:12:27;2.70;;;1.77;;
41263;SDS011;26998;48.714;9.414;2022-12-29T06:14:53;4.28;;;1.98;;
41263;SDS011;26998;48.714;9.414;2022-12-29T06:17:20;5.97;;;1.58;;
41263;SDS011;26998;48.714;9.414;2022-12-29T06:19:46;4.15;;;1.73;;
41263;SDS011;26998;48.714;9.414;2022-12-29T06:22:12;2.75;;;1.70;;
41263;SDS011;26998;48.714;9.414;2022-12-29T06:24:39;5.68;;;2.85;;
41263;SDS011;26998;48.714;9.414;2022-12-29T06:27:05;3.35;;;1.80;;
41263;SDS011;26998;48.714;9.414;2022-12-29T06:29:32;4.20;;;1.63;;
41263;SDS011;26998;48.714;9.414;2022-12-29T06:31:58;2.65;;;1.58;;
41263;SDS011;26998;48.714;9.414;2022-12-29T06:34:25;2.05;;;1.42;;
41263;SDS011;26998;48.714;9.414;2022-12-29T06:36:52;6.25;;;1.80;;
41263;SDS011;26998;48.714;9.414;2022-12-29T06:39:18;4.60;;;1.63;;
41263;SDS011;26998;48.714;9.414;2022-12-29T06:41:45;2.80;;;1.88;;
41263;SDS011;26998;48.714;9.414;2022-12-29T06:44:11;2.97;;;1.77;;
41263;SDS011;26998;48.714;9.414;2022-12-29T06:46:37;3.47;;;1.70;;
41263;SDS011;26998;48.714;9.414;2022-12-29T06:49:04;3.90;;;1.83;;
41263;SDS011;26998;48.714;9.414;2022-12-29T06:51:30;5.97;;;2.15;;
41263;SDS011;26998;48.714;9.414;2022-12-29T06:53:57;1.98;;;1.67;;
41263;SDS011;26998;48.714;9.414;2022-12-29T06:56:23;5.95;;;2.22;;
41263;SDS011;26998;48.714;9.414;2022-12-29T06:58:49;9.68;;;2.50;;
41263;SDS011;26998;48.714;9.414;2022-12-29T07:01:16;3.55;;;1.80;;
41263;SDS011;26998;48.714;9.414;2022-12-29T07:03:42;4.70;;;1.77;;
41263;SDS011;26998;48.714;9.414;2022-12-29T07:06:09;5.80;;;2.63;;
41263;SDS011;26998;48.714;9.414;2022-12-29T07:08:35;7.00;;;2.40;;
41263;SDS011;26998;48.714;9.414;2022-12-29T07:11:02;4.07;;;2.05;;
41263;SDS011;26998;48.714;9.414;2022-12-29T07:13:28;4.35;;;3.13;;
41263;SDS011;26998;48.714;9.414;2022-12-29T07:15:55;7.45;;;2.67;;
41263;SDS011;26998;48.714;9.414;2022-12-29T07:18:22;3.85;;;2.67;;
41263;SDS011;26998;48.714;9.414;2022-12-29T07:20:48;5.72;;;3.33;;
41263;SDS011;26998;48.714;9.414;2022-12-29T07:23:15;5.68;;;3.05;;
41263;SDS011;26998;48.714;9.414;2022-12-29T07:25:41;6.22;;;3.20;;
41263;SDS011;26998;48.714;9.414;2022-12-29T07:28:08;6.20;;;3.80;;
41263;SDS011;26998;48.714;9.414;2022-12-29T07:30:36;4.85;;;3.25;;
41263;SDS011;26998;48.714;9.414;2022-12-29T07:33:03;6.95;;;3.60;;
41263;SDS011;26998;48.714;9.414;2022-12-29T07:35:29;6.60;;;3.67;;
41263;SDS011;26998;48.714;9.414;2022-12-29T07:37:55;6.03;;;4.22;;
41263;SDS011;26998;48.714;9.414;2022-12-29T07:40:22;7.15;;;3.33;;
41263;SDS011;26998;48.714;9.414;2022-12-29T07:42:49;4.82;;;3.33;;
41263;SDS011;26998;48.714;9.414;2022-12-29T07:45:15;8.13;;;4.95;;
41263;SDS011;26998;48.714;9.414;2022-12-29T07:47:41;3.67;;;3.17;;
41263;SDS011;26998;48.714;9.414;2022-12-29T07:50:08;4.53;;;3.58;;
41263;SDS011;26998;48.714;9.414;2022-12-29T07:52:34;7.03;;;3.97;;
41263;SDS011;26998;48.714;9.414;2022-12-29T07:55:00;5.75;;;4.72;;
41263;SDS011;26998;48.714;9.414;2022-12-29T07:57:27;6.80;;;5.25;;
41263;SDS011;26998;48.714;9.414;2022-12-29T07:59:57;10.30;;;6.13;;
41263;SDS011;26998;48.714;9.414;2022-12-29T08:02:24;10.73;;;4.95;;
41263;SDS011;26998;48.714;9.414;2022-12-29T08:04:51;8.68;;;6.03;;
41263;SDS011;26998;48.714;9.414;2022-12-29T08:07:17;12.18;;;7.22;;
41263;SDS011;26998;48.714;9.414;2022-12-29T08:09:44;12.50;;;9.70;;
41263;SDS011;26998;48.714;9.414;2022-12-29T08:12:10;12.73;;;9.40;;
41263;SDS011;26998;48.714;9.414;2022-12-29T08:14:36;25.98;;;21.73;;
41263;SDS011;26998;48.714;9.414;2022-12-29T08:17:03;20.17;;;16.05;;
41263;SDS011;26998;48.714;9.414;2022-12-29T08:19:30;16.58;;;10.98;;
41263;SDS011;26998;48.714;9.414;2022-12-29T08:21:56;18.88;;;10.90;;
41263;SDS011;26998;48.714;9.414;2022-12-29T08:24:23;11.98;;;9.43;;
41263;SDS011;26998;48.714;9.414;2022-12-29T08:26:49;12.50;;;9.15;;
41263;SDS011;26998;48.714;9.414;2022-12-29T08:29:16;12.50;;;9.32;;
41263;SDS011;26998;48.714;9.414;2022-12-29T08:31:42;10.98;;;7.50;;
41263;SDS011;26998;48.714;9.414;2022-12-29T08:34:09;9.60;;;6.75;;
41263;SDS011;26998;48.714;9.414;2022-12-29T08:36:35;8.38;;;6.10;;
41263;SDS011;26998;48.714;9.414;2022-12-29T08:39:02;7.18;;;5.82;;
41263;SDS011;26998;48.714;9.414;2022-12-29T08:41:28;9.65;;;5.90;;
41263;SDS011;26998;48.714;9.414;2022-12-29T08:43:55;9.50;;;5.85;;
41263;SDS011;26998;48.714;9.414;2022-12-29T08:46:22;10.65;;;7.32;;
41263;SDS011;26998;48.714;9.414;2022-12-29T08:48:48;13.93;;;9.13;;
41263;SDS011;26998;48.714;9.414;2022-12-29T08:51:15;11.73;;;7.13;;
41263;SDS011;26998;48.714;9.414;2022-12-29T08:53:48;11.15;;;8.15;;
41263;SDS011;26998;48.714;9.414;2022-12-29T08:56:14;11.85;;;8.15;;
41263;SDS011;26998;48.714;9.414;2022-12-29T08:58:41;9.70;;;7.10;;
41263;SDS011;26998;48.714;9.414;2022-12-29T09:01:08;12.60;;;7.22;;
41263;SDS011;26998;48.714;9.414;2022-12-29T09:03:36;11.68;;;7.40;;
41263;SDS011;26998;48.714;9.414;2022-12-29T09:06:22;16.02;;;9.23;;
41263;SDS011;26998;48.714;9.414;2022-12-29T09:08:48;13.63;;;8.55;;
41263;SDS011;26998;48.714;9.414;2022-12-29T09:11:19;15.60;;;8.68;;
41263;SDS011;26998;48.714;9.414;2022-12-29T09:13:47;10.35;;;7.95;;
41263;SDS011;26998;48.714;9.414;2022-12-29T09:16:14;9.60;;;7.43;;
41263;SDS011;26998;48.714;9.414;2022-12-29T09:18:42;14.73;;;8.00;;
41263;SDS011;26998;48.714;9.414;2022-12-29T09:21:09;10.32;;;6.85;;
41263;SDS011;26998;48.714;9.414;2022-12-29T09:23:37;12.32;;;7.38;;
41263;SDS011;26998;48.714;9.414;2022-12-29T09:26:04;13.18;;;7.65;;
41263;SDS011;26998;48.714;9.414;2022-12-29T09:28:30;11.00;;;7.75;;
41263;SDS011;26998;48.714;9.414;2022-12-29T09:30:57;13.52;;;9.75;;
41263;SDS011;26998;48.714;9.414;2022-12-29T09:33:25;12.85;;;9.25;;
41263;SDS011;26998;48.714;9.414;2022-12-29T09:35:53;17.42;;;10.65;;
41263;SDS011;26998;48.714;9.414;2022-12-29T09:38:22;21.80;;;10.30;;
41263;SDS011;26998;48.714;9.414;2022-12-29T09:40:51;16.05;;;8.60;;
41263;SDS011;26998;48.714;9.414;2022-12-29T09:48:44;17.73;;;9.00;;
41263;SDS011;26998;48.714;9.414;2022-12-29T09:51:17;16.60;;;8.55;;
41263;SDS011;26998;48.714;9.414;2022-12-29T09:53:53;10.93;;;6.95;;
41263;SDS011;26998;48.714;9.414;2022-12-29T09:56:29;10.80;;;6.03;;
41263;SDS011;26998;48.714;9.414;2022-12-29T09:59:08;10.55;;;6.38;;
41263;SDS011;26998;48.714;9.414;2022-12-29T10:04:13;4.70;;;2.70;;
41263;SDS011;26998;48.714;9.414;2022-12-29T10:06:40;6.35;;;2.60;;
41263;SDS011;26998;48.714;9.414;2022-12-29T10:12:12;7.38;;;2.10;;
41263;SDS011;26998;48.714;9.414;2022-12-29T10:15:11;4.93;;;2.17;;
41263;SDS011;26998;48.714;9.414;2022-12-29T10:17:59;6.43;;;1.70;;
41263;SDS011;26998;48.714;9.414;2022-12-29T10:20:48;4.03;;;1.90;;
41263;SDS011;26998;48.714;9.414;2022-12-29T10:26:30;5.35;;;1.45;;
41263;SDS011;26998;48.714;9.414;2022-12-29T10:29:03;3.13;;;1.40;;
41263;SDS011;26998;48.714;9.414;2022-12-29T10:31:36;2.13;;;1.83;;
41263;SDS011;26998;48.714;9.414;2022-12-29T10:34:15;6.00;;;1.90;;
41263;SDS011;26998;48.714;9.414;2022-12-29T10:36:51;4.25;;;1.65;;
41263;SDS011;26998;48.714;9.414;2022-12-29T10:39:32;5.22;;;1.88;;
41263;SDS011;26998;48.714;9.414;2022-12-29T10:44:47;5.35;;;1.83;;
41263;SDS011;26998;48.714;9.414;2022-12-29T10:47:15;3.13;;;1.50;;
41263;SDS011;26998;48.714;9.414;2022-12-29T10:49:45;4.57;;;2.20;;
41263;SDS011;26998;48.714;9.414;2022-12-29T10:52:14;3.60;;;2.15;;
41263;SDS011;26998;48.714;9.414;2022-12-29T10:54:56;3.65;;;1.92;;
41263;SDS011;26998;48.714;9.414;2022-12-29T10:57:28;3.25;;;1.80;;
41263;SDS011;26998;48.714;9.414;2022-12-29T10:59:59;3.25;;;1.67;;
41263;SDS011;26998;48.714;9.414;2022-12-29T11:02:31;3.15;;;1.75;;
41263;SDS011;26998;48.714;9.414;2022-12-29T11:05:12;3.15;;;1.95;;
41263;SDS011;26998;48.714;9.414;2022-12-29T11:07:41;2.85;;;2.00;;
41263;SDS011;26998;48.714;9.414;2022-12-29T11:13:12;4.57;;;1.55;;
41263;SDS011;26998;48.714;9.414;2022-12-29T11:15:44;7.85;;;2.40;;
41263;SDS011;26998;48.714;9.414;2022-12-29T11:18:18;3.70;;;1.70;;
41263;SDS011;26998;48.714;9.414;2022-12-29T11:20:53;8.38;;;2.10;;
41263;SDS011;26998;48.714;9.414;2022-12-29T11:28:45;5.38;;;1.98;;
41263;SDS011;26998;48.714;9.414;2022-12-29T11:31:17;2.70;;;1.50;;
41263;SDS011;26998;48.714;9.414;2022-12-29T11:33:44;1.55;;;1.33;;
41263;SDS011;26998;48.714;9.414;2022-12-29T11:36:14;2.40;;;1.52;;
41263;SDS011;26998;48.714;9.414;2022-12-29T11:38:47;3.25;;;1.75;;
41263;SDS011;26998;48.714;9.414;2022-12-29T11:41:23;2.83;;;1.83;;
41263;SDS011;26998;48.714;9.414;2022-12-29T11:43:51;4.07;;;1.70;;
41263;SDS011;26998;48.714;9.414;2022-12-29T11:48:59;4.22;;;2.10;;
41263;SDS011;26998;48.714;9.414;2022-12-29T11:51:27;3.33;;;1.70;;
41263;SDS011;26998;48.714;9.414;2022-12-29T11:53:57;4.72;;;1.67;;
41263;SDS011;26998;48.714;9.414;2022-12-29T11:56:36;4.07;;;1.60;;
41263;SDS011;26998;48.714;9.414;2022-12-29T12:01:55;2.58;;;1.40;;
41263;SDS011;26998;48.714;9.414;2022-12-29T12:04:26;3.38;;;1.55;;
41263;SDS011;26998;48.714;9.414;2022-12-29T12:07:02;4.18;;;1.50;;
41263;SDS011;26998;48.714;9.414;2022-12-29T12:09:45;2.42;;;1.30;;
41263;SDS011;26998;48.714;9.414;2022-12-29T12:12:34;2.23;;;1.53;;
41263;SDS011;26998;48.714;9.414;2022-12-29T12:15:08;3.45;;;1.30;;
41263;SDS011;26998;48.714;9.414;2022-12-29T12:17:54;5.05;;;2.05;;
41263;SDS011;26998;48.714;9.414;2022-12-29T12:20:28;5.70;;;2.13;;
41263;SDS011;26998;48.714;9.414;2022-12-29T12:23:16;2.22;;;1.40;;
41263;SDS011;26998;48.714;9.414;2022-12-29T12:28:49;2.85;;;1.70;;
41263;SDS011;26998;48.714;9.414;2022-12-29T12:33:57;3.28;;;1.85;;
41263;SDS011;26998;48.714;9.414;2022-12-29T12:36:49;6.75;;;2.13;;
41263;SDS011;26998;48.714;9.414;2022-12-29T12:50:30;4.32;;;1.88;;
41263;SDS011;26998;48.714;9.414;2022-12-29T12:53:10;7.18;;;1.85;;
41263;SDS011;26998;48.714;9.414;2022-12-29T12:58:50;4.47;;;1.83;;
41263;SDS011;26998;48.714;9.414;2022-12-29T13:12:55;3.25;;;1.50;;
41263;SDS011;26998;48.714;9.414;2022-12-29T13:16:00;5.03;;;1.70;;
41263;SDS011;26998;48.714;9.414;2022-12-29T13:24:13;2.15;;;1.52;;
41263;SDS011;26998;48.714;9.414;2022-12-29T13:26:48;4.10;;;1.73;;
41263;SDS011;26998;48.714;9.414;2022-12-29T13:29:36;6.28;;;2.13;;
41263;SDS011;26998;48.714;9.414;2022-12-29T13:40:44;2.65;;;1.60;;
41263;SDS011;26998;48.714;9.414;2022-12-29T13:43:14;3.97;;;2.10;;
41263;SDS011;26998;48.714;9.414;2022-12-29T13:45:42;1.63;;;1.52;;
41263;SDS011;26998;48.714;9.414;2022-12-29T13:48:17;3.75;;;1.80;;
41263;SDS011;26998;48.714;9.414;2022-12-29T13:50:51;4.20;;;2.08;;
41263;SDS011;26998;48.714;9.414;2022-12-29T13:53:27;4.93;;;1.98;;
41263;SDS011;26998;48.714;9.414;2022-12-29T13:56:07;9.98;;;2.17;;
41263;SDS011;26998;48.714;9.414;2022-12-29T14:04:00;3.65;;;3.03;;
41263;SDS011;26998;48.714;9.414;2022-12-29T14:09:30;2.72;;;2.00;;
41263;SDS011;26998;48.714;9.414;2022-12-29T14:12:00;3.45;;;2.53;;
41263;SDS011;26998;48.714;9.414;2022-12-29T14:14:28;5.93;;;2.70;;
41263;SDS011;26998;48.714;9.414;2022-12-29T14:17:10;5.67;;;3.27;;
41263;SDS011;26998;48.714;9.414;2022-12-29T14:19:41;3.90;;;1.80;;
41263;SDS011;26998;48.714;9.414;2022-12-29T14:22:09;2.78;;;2.08;;
41263;SDS011;26998;48.714;9.414;2022-12-29T14:32:46;5.53;;;2.30;;
41263;SDS011;26998;48.714;9.414;2022-12-29T14:34:57;4.00;;;1.77;;
41263;SDS011;26998;48.714;9.414;2022-12-29T14:40:17;4.15;;;1.60;;
41263;SDS011;26998;48.714;9.414;2022-12-29T14:42:49;3.00;;;1.88;;
41263;SDS011;26998;48.714;9.414;2022-12-29T14:47:44;3.92;;;1.77;;
41263;SDS011;26998;48.714;9.414;2022-12-29T14:52:51;3.20;;;2.08;;
41263;SDS011;26998;48.714;9.414;2022-12-29T15:01:12;8.07;;;2.38;;
41263;SDS011;26998;48.714;9.414;2022-12-29T15:03:45;4.78;;;2.00;;
41263;SDS011;26998;48.714;9.414;2022-12-29T15:06:13;3.85;;;2.17;;
41263;SDS011;26998;48.714;9.414;2022-12-29T15:08:46;2.90;;;2.08;;
41263;SDS011;26998;48.714;9.414;2022-12-29T15:16:24;2.65;;;1.80;;
41263;SDS011;26998;48.714;9.414;2022-12-29T15:18:55;3.00;;;1.80;;
41263;SDS011;26998;48.714;9.414;2022-12-29T15:21:25;3.35;;;2.55;;
41263;SDS011;26998;48.714;9.414;2022-12-29T15:23:55;3.20;;;2.38;;
41263;SDS011;26998;48.714;9.414;2022-12-29T15:26:21;4.40;;;2.97;;
41263;SDS011;26998;48.714;9.414;2022-12-29T15:28:52;4.68;;;3.38;;
41263;SDS011;26998;48.714;9.414;2022-12-29T15:31:20;4.97;;;3.42;;
41263;SDS011;26998;48.714;9.414;2022-12-29T15:34:02;22.42;;;19.67;;
41263;SDS011;26998;48.714;9.414;2022-12-29T15:42:01;6.10;;;3.35;;
41263;SDS011;26998;48.714;9.414;2022-12-29T15:44:38;8.93;;;5.85;;
41263;SDS011;26998;48.714;9.414;2022-12-29T15:47:11;7.80;;;5.63;;
41263;SDS011;26998;48.714;9.414;2022-12-29T15:49:43;5.97;;;4.35;;
41263;SDS011;26998;48.714;9.414;2022-12-29T15:52:13;8.40;;;4.10;;
41263;SDS011;26998;48.714;9.414;2022-12-29T15:54:45;7.25;;;4.63;;
41263;SDS011;26998;48.714;9.414;2022-12-29T15:57:28;6.33;;;4.57;;
41263;SDS011;26998;48.714;9.414;2022-12-29T15:59:56;8.18;;;4.63;;
41263;SDS011;26998;48.714;9.414;2022-12-29T16:02:23;6.35;;;4.32;;
41263;SDS011;26998;48.714;9.414;2022-12-29T16:04:51;8.93;;;4.50;;
41263;SDS011;26998;48.714;9.414;2022-12-29T16:07:38;6.88;;;4.57;;
41263;SDS011;26998;48.714;9.414;2022-12-29T16:10:35;10.05;;;5.80;;
41263;SDS011;26998;48.714;9.414;2022-12-29T16:13:15;12.68;;;7.75;;
41263;SDS011;26998;48.714;9.414;2022-12-29T16:15:46;16.08;;;8.77;;
41263;SDS011;26998;48.714;9.414;2022-12-29T16:18:19;14.18;;;7.97;;
41263;SDS011;26998;48.714;9.414;2022-12-29T16:20:50;17.77;;;9.73;;
41263;SDS011;26998;48.714;9.414;2022-12-29T16:23:19;15.90;;;9.60;;
41263;SDS011;26998;48.714;9.414;2022-12-29T16:25:49;17.38;;;11.00;;
41263;SDS011;26998;48.714;9.414;2022-12-29T16:28:18;23.17;;;13.93;;
41263;SDS011;26998;48.714;9.414;2022-12-29T16:33:35;16.05;;;9.30;;
41263;SDS011;26998;48.714;9.414;2022-12-29T16:36:20;22.08;;;12.77;;
41263;SDS011;26998;48.714;9.414;2022-12-29T16:38:47;19.80;;;12.30;;
41263;SDS011;26998;48.714;9.414;2022-12-29T16:41:27;16.90;;;8.57;;
41263;SDS011;26998;48.714;9.414;2022-12-29T16:46:55;8.70;;;5.30;;
41263;SDS011;26998;48.714;9.414;2022-12-29T16:49:25;5.45;;;4.55;;
41263;SDS011;26998;48.714;9.414;2022-12-29T16:51:53;6.55;;;3.97;;
41263;SDS011;26998;48.714;9.414;2022-12-29T16:54:21;9.07;;;6.43;;
41263;SDS011;26998;48.714;9.414;2022-12-29T16:56:50;10.93;;;5.53;;
41263;SDS011;26998;48.714;9.414;2022-12-29T17:01:44;6.20;;;4.90;;
41263;SDS011;26998;48.714;9.414;2022-12-29T17:04:12;5.50;;;4.30;;
41263;SDS011;26998;48.714;9.414;2022-12-29T17:06:39;6.13;;;3.90;;
41263;SDS011;26998;48.714;9.414;2022-12-29T17:09:16;5.80;;;3.30;;
41263;SDS011;26998;48.714;9.414;2022-12-29T17:11:52;3.47;;;2.90;;
41263;SDS011;26998;48.714;9.414;2022-12-29T17:14:46;3.35;;;2.75;;
41263;SDS011;26998;48.714;9.414;2022-12-29T17:17:16;4.97;;;3.15;;
41263;SDS011;26998;48.714;9.414;2022-12-29T17:22:18;3.00;;;2.60;;
41263;SDS011;26998;48.714;9.414;2022-12-29T17:24:46;3.78;;;2.78;;
41263;SDS011;26998;48.714;9.414;2022-12-29T17:27:23;4.35;;;3.45;;
41263;SDS011;26998;48.714;9.414;2022-12-29T17:29:52;4.25;;;3.00;;
41263;SDS011;26998;48.714;9.414;2022-12-29T17:32:40;4.82;;;2.83;;
41263;SDS011;26998;48.714;9.414;2022-12-29T17:35:15;4.40;;;2.13;;
41263;SDS011;26998;48.714;9.414;2022-12-29T17:37:43;2.83;;;2.05;;
41263;SDS011;26998;48.714;9.414;2022-12-29T17:40:12;4.25;;;2.60;;